createdAt,value
2022-12-29T00:00:18.805Z,99249.94
2022-12-29T00:02:46.050Z,99249.69
2022-12-29T00:05:13.300Z,99246.75
2022-12-29T00:07:40.371Z,99241.34
2022-12-29T00:10:07.846Z,99259.69
2022-12-29T00:13:10.236Z,99253.69
2022-12-29T00:15:40.463Z,99249.13
2022-12-29T00:18:08.753Z,99260.94
2022-12-29T00:20:57.564Z,99253.84
2022-12-29T00:23:43.666Z,99256.06
2022-12-29T00:26:34.771Z,99272.72
2022-12-29T00:29:20.452Z,99265.50
2022-12-29T00:32:07.296Z,99264.09
2022-12-29T00:34:52.981Z,99262.16
2022-12-29T00:37:40.072Z,99270.75
2022-12-29T00:40:26.093Z,99276.31
2022-12-29T00:43:11.923Z,99270.88
2022-12-29T00:45:42.841Z,99277.56
2022-12-29T00:48:09.935Z,99278.78
2022-12-29T00:50:37.209Z,99276.41
2022-12-29T00:53:04.289Z,99278.22
2022-12-29T00:55:31.381Z,99279.22
2022-12-29T00:57:59.423Z,99279.88
2022-12-29T01:00:26.652Z,99281.72
2022-12-29T01:02:53.847Z,99291.59
2022-12-29T01:05:21.070Z,99279.63
2022-12-29T01:07:48.153Z,99283.78
2022-12-29T01:10:16.278Z,99281.44
2022-12-29T01:12:43.355Z,99282.31
2022-12-29T01:15:12.914Z,99281.31
2022-12-29T01:17:39.957Z,99281.88
2022-12-29T01:20:07.629Z,99291.59
2022-12-29T01:22:36.086Z,99297.16
2022-12-29T01:25:03.630Z,99287.69
2022-12-29T01:27:30.680Z,99299.22
2022-12-29T01:29:58.402Z,99295.44
2022-12-29T01:32:25.597Z,99294.22
2022-12-29T01:34:52.676Z,99304.59
2022-12-29T01:37:19.728Z,99297.94
2022-12-29T01:39:46.865Z,99298.88
2022-12-29T01:42:27.300Z,99307.94
2022-12-29T01:44:56.688Z,99299.63
2022-12-29T01:47:39.152Z,99303.25
2022-12-29T01:50:26.186Z,99295.97
2022-12-29T01:53:33.248Z,99296.69
2022-12-29T01:56:06.395Z,99304.47
2022-12-29T01:58:41.171Z,99306.59
2022-12-29T02:01:08.870Z,99305.34
2022-12-29T02:03:37.589Z,99297.69
2022-12-29T02:06:20.067Z,99303.34
2022-12-29T02:08:48.640Z,99309.34
2022-12-29T02:11:17.426Z,99306.16
2022-12-29T02:13:44.457Z,99306.13
2022-12-29T02:16:30.033Z,99309.56
2022-12-29T02:19:12.403Z,99318.41
2022-12-29T02:21:57.632Z,99312.03
2022-12-29T02:25:10.300Z,99315.50
2022-12-29T02:28:14.586Z,99316.03
2022-12-29T02:30:47.973Z,99316.75
2022-12-29T02:33:41.228Z,99321.16
2022-12-29T02:36:30.187Z,99317.81
2022-12-29T02:39:38.741Z,99317.81
2022-12-29T02:42:17.671Z,99311.41
2022-12-29T02:45:04.056Z,99321.59
2022-12-29T02:47:42.664Z,99321.91
2022-12-29T02:50:14.985Z,99321.72
2022-12-29T02:52:53.148Z,99321.59
2022-12-29T02:55:20.371Z,99320.31
2022-12-29T02:57:47.495Z,99324.75
2022-12-29T03:00:18.138Z,99328.09
2022-12-29T03:03:33.017Z,99333.81
2022-12-29T03:06:28.357Z,99342.44
2022-12-29T03:09:20.683Z,99335.88
2022-12-29T03:12:10.692Z,99334.38
2022-12-29T03:15:10.031Z,99341.34
2022-12-29T03:18:04.404Z,99341.50
2022-12-29T03:20:56.132Z,99345.13
2022-12-29T03:23:26.410Z,99347.63
2022-12-29T03:25:59.355Z,99341.44
2022-12-29T03:28:36.881Z,99354.88
2022-12-29T03:31:06.060Z,99355.47
2022-12-29T03:33:34.168Z,99362.47
2022-12-29T03:36:06.258Z,99353.84
2022-12-29T03:38:47.315Z,99359.50
2022-12-29T03:41:21.450Z,99364.38
2022-12-29T03:43:48.698Z,99367.75
2022-12-29T03:46:15.804Z,99368.25
2022-12-29T03:48:42.978Z,99375.94
2022-12-29T03:51:10.456Z,99375.75
2022-12-29T03:53:37.573Z,99382.69
2022-12-29T03:56:05.127Z,99381.22
2022-12-29T03:58:32.835Z,99384.56
2022-12-29T04:01:06.139Z,99387.09
2022-12-29T04:03:36.590Z,99383.81
2022-12-29T04:06:05.149Z,99382.72
2022-12-29T04:08:50.853Z,99377.81
2022-12-29T04:11:17.999Z,99388.09
2022-12-29T04:13:46.405Z,99392.69
2022-12-29T04:16:17.401Z,99387.91
2022-12-29T04:18:45.808Z,99389.72
2022-12-29T04:21:13.357Z,99388.16
2022-12-29T04:23:43.028Z,99393.69
2022-12-29T04:26:11.623Z,99397.00
2022-12-29T04:29:03.895Z,99393.19
2022-12-29T04:32:00.133Z,99403.22
2022-12-29T04:34:29.364Z,99396.88
2022-12-29T04:36:56.364Z,99395.50
2022-12-29T04:39:23.484Z,99393.31
2022-12-29T04:41:50.524Z,99400.91
2022-12-29T04:44:20.947Z,99397.19
2022-12-29T04:46:53.708Z,99400.50
2022-12-29T04:49:40.500Z,99408.47
2022-12-29T04:52:17.358Z,99404.91
2022-12-29T04:54:46.513Z,99411.66
2022-12-29T04:57:18.438Z,99405.91
2022-12-29T04:59:52.301Z,99413.97
2022-12-29T05:02:19.646Z,99409.59
2022-12-29T05:04:49.276Z,99411.63
2022-12-29T05:07:17.143Z,99410.19
2022-12-29T05:09:45.956Z,99413.69
2022-12-29T05:12:13.048Z,99430.06
2022-12-29T05:14:48.806Z,99428.84
2022-12-29T05:17:16.059Z,99425.00
2022-12-29T05:19:43.174Z,99427.28
2022-12-29T05:22:10.247Z,99425.34
2022-12-29T05:24:38.634Z,99426.19
2022-12-29T05:27:06.248Z,99425.47
2022-12-29T05:29:55.610Z,99424.47
2022-12-29T05:32:22.714Z,99426.06
2022-12-29T05:34:50.014Z,99424.41
2022-12-29T05:37:18.724Z,99430.16
2022-12-29T05:39:45.743Z,99440.94
2022-12-29T05:42:13.880Z,99438.75
2022-12-29T05:45:01.649Z,99442.59
2022-12-29T05:47:43.197Z,99441.63
2022-12-29T05:50:30.460Z,99448.03
2022-12-29T05:53:24.180Z,99441.84
2022-12-29T05:55:51.200Z,99451.41
2022-12-29T05:58:18.654Z,99443.75
2022-12-29T06:00:45.942Z,99454.88
2022-12-29T06:03:13.904Z,99449.34
2022-12-29T06:05:42.440Z,99447.81
2022-12-29T06:08:09.485Z,99452.13
2022-12-29T06:10:36.692Z,99449.25
2022-12-29T06:13:06.951Z,99449.34
2022-12-29T06:15:37.463Z,99446.59
2022-12-29T06:18:07.795Z,99450.81
2022-12-29T06:20:35.220Z,99447.06
2022-12-29T06:23:05.022Z,99454.22
2022-12-29T06:25:33.424Z,99456.16
2022-12-29T06:28:01.282Z,99456.97
2022-12-29T06:30:28.350Z,99460.66
2022-12-29T06:32:55.802Z,99448.81
2022-12-29T06:35:24.324Z,99453.97
2022-12-29T06:37:52.667Z,99460.66
2022-12-29T06:40:20.930Z,99461.34
2022-12-29T06:43:08.635Z,99461.09
2022-12-29T06:46:01.900Z,99450.47
2022-12-29T06:48:29.026Z,99460.59
2022-12-29T06:50:56.093Z,99454.50
2022-12-29T06:53:23.195Z,99461.44
2022-12-29T06:55:51.466Z,99467.34
2022-12-29T06:58:20.900Z,99464.50
2022-12-29T07:00:48.596Z,99464.25
2022-12-29T07:03:15.796Z,99460.09
2022-12-29T07:05:43.138Z,99456.09
2022-12-29T07:08:10.239Z,99457.63
2022-12-29T07:10:37.302Z,99455.47
2022-12-29T07:13:04.333Z,99469.09
2022-12-29T07:15:31.369Z,99466.81
2022-12-29T07:17:58.418Z,99462.47
2022-12-29T07:20:27.204Z,99468.16
2022-12-29T07:22:54.748Z,99473.50
2022-12-29T07:25:22.154Z,99472.16
2022-12-29T07:27:49.800Z,99469.41
2022-12-29T07:30:16.991Z,99465.25
2022-12-29T07:35:36.052Z,99460.22
2022-12-29T07:38:03.084Z,99457.56
2022-12-29T07:40:30.010Z,99464.25
2022-12-29T07:42:57.182Z,99465.78
2022-12-29T07:45:33.375Z,99470.25
2022-12-29T07:48:09.464Z,99473.00
2022-12-29T07:50:37.751Z,99478.69
2022-12-29T07:53:05.030Z,99477.25
2022-12-29T07:55:32.269Z,99482.81
2022-12-29T07:57:59.290Z,99481.66
2022-12-29T08:00:26.513Z,99488.84
2022-12-29T08:02:53.620Z,99492.72
2022-12-29T08:05:20.661Z,99493.59
2022-12-29T08:07:48.447Z,99494.50
2022-12-29T08:10:16.785Z,99499.56
2022-12-29T08:12:44.385Z,99489.88
2022-12-29T08:15:13.236Z,99491.84
2022-12-29T08:17:40.301Z,99496.25
2022-12-29T08:20:08.468Z,99501.78
2022-12-29T08:22:35.795Z,99506.72
2022-12-29T08:25:03.322Z,99499.81
2022-12-29T08:27:30.708Z,99497.94
2022-12-29T08:29:57.747Z,99504.31
2022-12-29T08:32:24.871Z,99496.28
2022-12-29T08:34:51.964Z,99498.19
2022-12-29T08:37:18.947Z,99501.88
2022-12-29T08:39:45.939Z,99501.47
2022-12-29T08:42:13.092Z,99509.53
2022-12-29T08:44:40.200Z,99503.72
2022-12-29T08:47:07.364Z,99498.97
2022-12-29T08:49:34.534Z,99493.03
2022-12-29T08:52:01.535Z,99497.13
2022-12-29T08:54:28.613Z,99497.41
2022-12-29T08:56:55.663Z,99492.94
2022-12-29T08:59:27.829Z,99493.50
2022-12-29T09:01:54.988Z,99493.09
2022-12-29T09:04:22.294Z,99503.97
2022-12-29T09:06:49.598Z,99500.69
2022-12-29T09:09:17.125Z,99501.47
2022-12-29T09:17:04.893Z,99503.41
2022-12-29T09:19:31.984Z,99503.72
2022-12-29T09:21:58.974Z,99514.44
2022-12-29T09:24:26.056Z,99508.91
2022-12-29T09:26:53.497Z,99490.91
2022-12-29T09:29:20.715Z,99499.84
2022-12-29T09:31:47.828Z,99503.19
2022-12-29T09:34:14.904Z,99489.91
2022-12-29T09:36:42.013Z,99497.56
2022-12-29T09:39:09.533Z,99497.28
2022-12-29T09:41:53.572Z,99494.22
2022-12-29T09:44:57.924Z,99496.19
2022-12-29T09:47:27.773Z,99507.50
2022-12-29T09:50:04.984Z,99500.31
2022-12-29T09:52:49.914Z,99499.34
2022-12-29T09:55:22.144Z,99499.34
2022-12-29T09:57:57.727Z,99498.53
2022-12-29T10:00:55.852Z,99506.88
2022-12-29T10:03:29.358Z,99499.56
2022-12-29T10:06:20.482Z,99509.53
2022-12-29T10:09:03.155Z,99504.34
2022-12-29T10:21:18.712Z,99485.34
2022-12-29T10:23:54.059Z,99495.34
2022-12-29T10:26:43.707Z,99508.91
2022-12-29T10:29:23.256Z,99512.00
2022-12-29T10:32:00.709Z,99495.63
2022-12-29T10:34:43.988Z,99507.94
2022-12-29T10:37:49.025Z,99503.81
2022-12-29T10:40:39.617Z,99499.09
2022-12-29T10:43:33.745Z,99504.53
2022-12-29T10:46:10.363Z,99510.63
2022-12-29T10:48:38.386Z,99508.38
2022-12-29T10:51:09.736Z,99516.19
2022-12-29T10:53:46.398Z,99502.84
2022-12-29T10:56:46.148Z,99502.16
2022-12-29T10:59:23.303Z,99505.63
2022-12-29T11:02:03.055Z,99506.56
2022-12-29T11:04:59.588Z,99495.44
2022-12-29T11:07:27.785Z,99497.78
2022-12-29T11:09:55.565Z,99489.84
2022-12-29T11:12:25.919Z,99483.59
2022-12-29T11:15:22.358Z,99475.81
2022-12-29T11:17:54.983Z,99481.66
2022-12-29T11:20:38.740Z,99480.56
2022-12-29T11:23:27.941Z,99478.31
2022-12-29T11:26:08.729Z,99479.00
2022-12-29T11:28:36.065Z,99481.38
2022-12-29T11:31:05.010Z,99478.66
2022-12-29T11:33:33.592Z,99482.25
2022-12-29T11:36:06.947Z,99485.03
2022-12-29T11:38:40.471Z,99484.19
2022-12-29T11:41:11.794Z,99477.41
2022-12-29T11:43:42.777Z,99479.22
2022-12-29T11:46:17.657Z,99481.03
2022-12-29T11:48:46.804Z,99487.38
2022-12-29T11:51:25.190Z,99485.25
2022-12-29T11:53:59.386Z,99486.56
2022-12-29T11:56:41.136Z,99497.38
2022-12-29T11:59:37.558Z,99498.19
2022-12-29T12:02:38.841Z,99498.66
2022-12-29T12:05:20.535Z,99503.28
2022-12-29T12:07:56.005Z,99510.09
2022-12-29T12:10:33.153Z,99508.75
2022-12-29T12:13:07.001Z,99508.88
2022-12-29T12:15:56.816Z,99510.31
2022-12-29T12:18:37.819Z,99510.75
2022-12-29T12:21:23.318Z,99515.31
2022-12-29T12:24:16.343Z,99511.97
2022-12-29T12:27:08.301Z,99503.38
2022-12-29T12:30:07.053Z,99499.34
2022-12-29T12:32:46.690Z,99504.25
2022-12-29T12:35:21.588Z,99503.84
2022-12-29T12:38:10.453Z,99505.28
2022-12-29T12:40:46.372Z,99500.97
2022-12-29T12:43:58.433Z,99506.75
2022-12-29T12:46:54.434Z,99503.16
2022-12-29T12:49:43.134Z,99499.28
2022-12-29T12:52:47.487Z,99503.09
2022-12-29T12:55:20.259Z,99500.59
2022-12-29T12:58:08.483Z,99507.00
2022-12-29T13:00:52.058Z,99498.66
2022-12-29T13:03:47.234Z,99499.13
2022-12-29T13:06:41.969Z,99503.81
2022-12-29T13:09:46.168Z,99506.19
2022-12-29T13:12:23.043Z,99509.59
2022-12-29T13:15:05.532Z,99509.66
2022-12-29T13:17:42.106Z,99501.59
2022-12-29T13:20:23.077Z,99504.56
2022-12-29T13:22:52.973Z,99506.25
2022-12-29T13:25:20.007Z,99508.38
2022-12-29T13:28:11.760Z,99508.69
2022-12-29T13:31:05.254Z,99510.94
2022-12-29T13:33:57.127Z,99505.50
2022-12-29T13:36:30.512Z,99508.13
2022-12-29T13:39:25.846Z,99502.34
2022-12-29T13:41:56.006Z,99508.44
2022-12-29T13:44:45.326Z,99500.97
2022-12-29T13:47:38.223Z,99510.41
2022-12-29T13:50:13.744Z,99503.53
2022-12-29T13:53:14.081Z,99493.22
2022-12-29T13:55:56.618Z,99494.91
2022-12-29T13:58:36.172Z,99495.41
2022-12-29T14:01:33.359Z,99501.31
2022-12-29T14:04:04.017Z,99491.56
2022-12-29T14:06:33.130Z,99501.16
2022-12-29T14:09:03.895Z,99502.66
2022-12-29T14:11:36.600Z,99503.47
2022-12-29T14:14:22.411Z,99496.03
2022-12-29T14:16:50.286Z,99497.44
2022-12-29T14:19:22.237Z,99494.28
2022-12-29T14:22:00.360Z,99500.56
2022-12-29T14:24:36.453Z,99496.13
2022-12-29T14:27:13.183Z,99504.63
2022-12-29T14:29:40.251Z,99505.78
2022-12-29T14:32:25.412Z,99503.97
2022-12-29T14:35:00.613Z,99493.84
2022-12-29T14:37:31.975Z,99500.81
2022-12-29T14:40:18.747Z,99506.78
2022-12-29T14:42:49.835Z,99501.97
2022-12-29T14:45:17.667Z,99504.63
2022-12-29T14:47:50.316Z,99506.72
2022-12-29T14:50:25.781Z,99504.72
2022-12-29T14:53:06.153Z,99508.38
2022-12-29T14:55:44.113Z,99508.00
2022-12-29T14:58:23.389Z,99507.19
2022-12-29T15:00:50.960Z,99505.38
2022-12-29T15:03:24.007Z,99499.72
2022-12-29T15:05:57.116Z,99505.88
2022-12-29T15:08:29.028Z,99508.03
2022-12-29T15:11:02.131Z,99508.00
2022-12-29T15:13:37.844Z,99508.47
2022-12-29T15:16:05.958Z,99508.50
2022-12-29T15:18:34.956Z,99506.72
2022-12-29T15:21:04.644Z,99513.84
2022-12-29T15:23:35.218Z,99511.72
2022-12-29T15:26:11.614Z,99512.06
2022-12-29T15:28:46.908Z,99515.03
2022-12-29T15:31:23.543Z,99506.69
2022-12-29T15:34:10.042Z,99493.03
2022-12-29T15:36:42.487Z,99494.19
2022-12-29T15:39:28.901Z,99490.09
2022-12-29T15:42:17.911Z,99487.22
2022-12-29T15:44:45.954Z,99490.81
2022-12-29T15:47:22.300Z,99495.69
2022-12-29T15:49:52.408Z,99492.22
2022-12-29T15:52:21.718Z,99493.53
2022-12-29T15:54:54.694Z,99489.81
2022-12-29T15:57:37.700Z,99484.88
2022-12-29T16:00:23.013Z,99483.06
2022-12-29T16:02:50.521Z,99481.97
2022-12-29T16:05:19.596Z,99482.56
2022-12-29T16:07:58.461Z,99481.88
2022-12-29T16:10:41.281Z,99480.56
2022-12-29T16:13:41.105Z,99476.63
2022-12-29T16:16:21.921Z,99475.66
2022-12-29T16:18:56.947Z,99467.38
2022-12-29T16:21:30.237Z,99464.50
2022-12-29T16:24:03.158Z,99458.97
2022-12-29T16:26:30.734Z,99453.19
2022-12-29T16:29:00.745Z,99458.19
2022-12-29T16:31:37.715Z,99452.41
2022-12-29T16:34:24.387Z,99454.41
2022-12-29T16:37:03.957Z,99455.06
2022-12-29T16:39:37.627Z,99451.56
2022-12-29T16:42:47.110Z,99450.41
2022-12-29T16:45:22.377Z,99449.56
2022-12-29T16:48:06.011Z,99448.00
2022-12-29T16:50:37.937Z,99449.16
2022-12-29T16:53:06.417Z,99441.50
2022-12-29T16:55:34.076Z,99440.53
2022-12-29T16:58:01.659Z,99433.50
2022-12-29T17:00:34.599Z,99444.09
2022-12-29T17:03:02.855Z,99452.44
2022-12-29T17:05:29.998Z,99449.81
2022-12-29T17:08:03.462Z,99444.44
2022-12-29T17:10:50.488Z,99456.72
2022-12-29T17:13:17.488Z,99455.03
2022-12-29T17:15:44.544Z,99454.66
2022-12-29T17:18:14.232Z,99453.78
2022-12-29T17:20:42.354Z,99455.41
2022-12-29T17:23:19.960Z,99444.13
2022-12-29T17:25:51.808Z,99448.19
2022-12-29T17:28:32.253Z,99441.16
2022-12-29T17:31:06.996Z,99443.38
2022-12-29T17:33:38.729Z,99439.41
2022-12-29T17:36:06.132Z,99450.13
2022-12-29T17:38:37.529Z,99442.84
2022-12-29T17:41:04.966Z,99440.53
2022-12-29T17:43:37.023Z,99439.94
2022-12-29T17:46:07.255Z,99436.78
2022-12-29T17:48:34.558Z,99431.22
2022-12-29T17:51:01.609Z,99427.69
2022-12-29T17:53:30.633Z,99429.38
2022-12-29T17:55:58.028Z,99428.53
2022-12-29T17:58:27.560Z,99425.72
2022-12-29T18:00:59.801Z,99420.31
2022-12-29T18:03:45.338Z,99423.59
2022-12-29T18:06:12.865Z,99423.47
2022-12-29T18:08:41.562Z,99426.59
2022-12-29T18:11:24.783Z,99412.97
2022-12-29T18:13:53.503Z,99417.84
2022-12-29T18:16:22.750Z,99419.69
2022-12-29T18:18:49.925Z,99420.41
2022-12-29T18:21:21.213Z,99421.44
2022-12-29T18:23:49.341Z,99424.22
2022-12-29T18:26:25.705Z,99421.34
2022-12-29T18:28:56.627Z,99425.88
2022-12-29T18:31:27.066Z,99419.69
2022-12-29T18:33:55.182Z,99415.34
2022-12-29T18:36:23.101Z,99412.97
2022-12-29T18:38:54.912Z,99419.16
2022-12-29T18:41:24.984Z,99415.59
2022-12-29T18:43:52.602Z,99411.88
2022-12-29T18:46:22.975Z,99413.69
2022-12-29T18:48:51.851Z,99406.38
2022-12-29T18:51:21.970Z,99415.22
2022-12-29T18:53:51.024Z,99411.50
2022-12-29T18:56:18.298Z,99411.28
2022-12-29T18:58:45.401Z,99409.34
2022-12-29T19:01:24.110Z,99406.97
2022-12-29T19:03:53.395Z,99406.47
2022-12-29T19:06:21.484Z,99400.38
2022-12-29T19:08:48.919Z,99403.09
2022-12-29T19:11:16.442Z,99403.19
2022-12-29T19:13:43.610Z,99399.16
2022-12-29T19:16:21.176Z,99399.16
2022-12-29T19:19:05.706Z,99398.91
2022-12-29T19:21:37.347Z,99396.13
2022-12-29T19:24:04.870Z,99402.13
2022-12-29T19:26:36.698Z,99402.78
2022-12-29T19:29:05.460Z,99397.97
2022-12-29T19:31:32.794Z,99402.78
2022-12-29T19:34:03.734Z,99401.69
2022-12-29T19:36:31.083Z,99398.44
2022-12-29T19:38:58.693Z,99396.03
2022-12-29T19:41:25.865Z,99394.69
2022-12-29T19:43:53.087Z,99387.41
2022-12-29T19:46:21.022Z,99393.84
2022-12-29T19:48:48.061Z,99390.25
2022-12-29T19:51:17.381Z,99400.16
2022-12-29T19:53:47.718Z,99398.47
2022-12-29T19:56:15.448Z,99389.16
2022-12-29T19:58:46.856Z,99391.56
2022-12-29T20:01:20.332Z,99386.03
2022-12-29T20:03:48.656Z,99387.09
2022-12-29T20:06:16.337Z,99379.69
2022-12-29T20:08:43.839Z,99389.97
2022-12-29T20:11:14.496Z,99375.34
2022-12-29T20:13:42.771Z,99377.19
2022-12-29T20:16:14.802Z,99371.09
2022-12-29T20:18:42.586Z,99388.94
2022-12-29T20:21:15.534Z,99375.56
2022-12-29T20:23:43.398Z,99378.19
2022-12-29T20:26:29.142Z,99370.78
2022-12-29T20:28:58.314Z,99380.81
2022-12-29T20:31:29.067Z,99378.13
2022-12-29T20:33:56.537Z,99379.06
2022-12-29T20:36:29.814Z,99373.72
2022-12-29T20:38:59.372Z,99370.66
2022-12-29T20:41:27.333Z,99371.03
2022-12-29T20:43:54.721Z,99376.63
2022-12-29T20:46:25.190Z,99380.56
2022-12-29T20:48:55.600Z,99370.28
2022-12-29T20:51:22.822Z,99375.09
2022-12-29T20:53:49.937Z,99371.84
2022-12-29T20:56:20.383Z,99367.41
2022-12-29T20:59:25.278Z,99358.88
2022-12-29T21:01:35.863Z,99352.25
2022-12-29T21:04:04.131Z,99349.31
2022-12-29T21:06:31.682Z,99351.69
2022-12-29T21:09:00.125Z,99340.41
2022-12-29T21:11:28.444Z,99339.41
2022-12-29T21:13:58.216Z,99341.34
2022-12-29T21:16:28.581Z,99345.81
2022-12-29T21:18:55.739Z,99336.69
2022-12-29T21:21:25.138Z,99336.38
2022-12-29T21:23:52.808Z,99332.72
2022-12-29T21:26:22.737Z,99332.25
2022-12-29T21:28:50.993Z,99317.75
2022-12-29T21:31:36.792Z,99322.75
2022-12-29T21:34:05.620Z,99312.69
2022-12-29T21:36:33.436Z,99305.59
2022-12-29T21:39:01.090Z,99309.41
2022-12-29T21:41:28.186Z,99307.41
2022-12-29T21:44:16.217Z,99303.16
2022-12-29T21:46:45.347Z,99310.09
2022-12-29T21:49:12.806Z,99318.66
2022-12-29T21:51:52.378Z,99314.69
2022-12-29T21:54:43.994Z,99301.50
2022-12-29T21:57:16.611Z,99299.38
2022-12-29T22:00:06.560Z,99296.53
2022-12-29T22:02:54.971Z,99295.75
2022-12-29T22:05:40.838Z,99292.78
2022-12-29T22:08:26.301Z,99298.06
2022-12-29T22:11:12.054Z,99299.53
2022-12-29T22:13:39.549Z,99300.00
2022-12-29T22:16:10.567Z,99303.00
2022-12-29T22:18:38.978Z,99307.78
2022-12-29T22:21:08.111Z,99310.28
2022-12-29T22:23:36.545Z,99300.44
2022-12-29T22:26:14.629Z,99296.53
2022-12-29T22:28:44.210Z,99299.19
2022-12-29T22:31:24.126Z,99297.69
2022-12-29T22:33:51.484Z,99297.91
2022-12-29T22:36:18.530Z,99290.88
2022-12-29T22:38:45.789Z,99294.69
2022-12-29T22:41:12.843Z,99298.72
2022-12-29T22:43:39.854Z,99301.94
2022-12-29T22:46:08.279Z,99305.19
2022-12-29T22:48:36.441Z,99303.38
2022-12-29T22:51:04.284Z,99304.13
2022-12-29T22:53:31.684Z,99297.56
2022-12-29T22:56:06.641Z,99295.72
2022-12-29T22:58:34.026Z,99300.78
2022-12-29T23:01:01.579Z,99282.94
2022-12-29T23:03:28.840Z,99281.81
2022-12-29T23:05:57.737Z,99272.22
2022-12-29T23:08:25.241Z,99272.03
2022-12-29T23:10:52.524Z,99274.56
2022-12-29T23:13:19.732Z,99277.66
2022-12-29T23:15:47.170Z,99278.69
2022-12-29T23:18:14.688Z,99277.03
2022-12-29T23:20:42.294Z,99268.94
2022-12-29T23:23:09.312Z,99283.38
2022-12-29T23:25:37.771Z,99280.75
2022-12-29T23:28:06.955Z,99285.44
2022-12-29T23:30:34.607Z,99283.91
2022-12-29T23:33:01.703Z,99287.69
2022-12-29T23:35:28.731Z,99285.63
2022-12-29T23:37:55.680Z,99288.19
2022-12-29T23:40:22.780Z,99288.72
2022-12-29T23:42:49.754Z,99280.03
2022-12-29T23:45:16.753Z,99296.28
2022-12-29T23:47:43.697Z,99291.03
2022-12-29T23:50:10.798Z,99283.78
2022-12-29T23:52:37.805Z,99276.34
2022-12-29T23:55:05.216Z,99270.81
2022-12-29T23:57:32.295Z,99263.34
2022-12-29T23:59:59.298Z,99261.59
